Terminal Aerodrome Forecast
Issued by NWS

Home | Current Version | Previous Version | Text Only | Print | Product List | Glossary On
Versions: 1 2 3 4 5 6 7 8 9 10 11 12 13 14 15 16 17 18 19 20 21 22 23 24 25 26 27 28
000
FTUS44 KOUN 272038 AAA
TAFWWR
TAF AMD
KWWR 272038Z 2721/2818 04010KT 2SM RA BR OVC005
      TEMPO 2721/2723 2SM TSRA BR OVC020CB
     FM280000 03020G25KT 2SM -RA BR OVC004
      TEMPO 2807/2811 1/2SM FG OVC002
     FM281200 35010KT 3SM BR OVC008
     FM281700 03008KT P6SM BKN020 BKN100=

USA.gov is the U.S. government's official web portal to all federal, state and local government web resources and services.